Time;durP1;ratioP1;P1;durP2;ratioP2;P2;SDS_P1;SDS_P2;PMS_P1;PMS_P2;Temp;Humidity;BMP_temperature;BMP_pressure;BME280_temperature;BME280_humidity;BME280_pressure;Samples;Min_cycle;Max_cycle;Signal;HPM_P1;HPM_P2
2021/11/02 00:02:00;;;;;;;7.60;5.38;;;13.40;99.90;;;;;;5066072;28;20239;-65
2021/11/02 00:04:29;;;;;;;5.43;4.80;;;13.30;99.90;;;;;;5065048;28;20258;-65
2021/11/02 00:06:56;;;;;;;8.43;5.80;;;13.30;99.90;;;;;;5052264;28;20791;-65
2021/11/02 00:09:28;;;;;;;6.60;5.03;;;13.30;99.90;;;;;;5065417;28;20240;-65
2021/11/02 00:11:56;;;;;;;7.55;4.18;;;13.30;99.90;;;;;;5064384;28;20219;-65
2021/11/02 00:14:26;;;;;;;6.32;4.57;;;13.30;99.90;;;;;;5065647;28;20323;-65
2021/11/02 00:16:56;;;;;;;5.03;4.53;;;13.30;99.90;;;;;;5065937;28;20583;-65
2021/11/02 00:19:25;;;;;;;4.97;4.57;;;13.30;99.90;;;;;;5059410;28;20497;-65
2021/11/02 00:21:56;;;;;;;5.60;4.47;;;13.20;99.90;;;;;;5058227;28;20666;-65
2021/11/02 00:24:39;;;;;;;4.60;3.97;;;13.20;99.90;;;;;;5053653;28;20471;-64
2021/11/02 00:27:07;;;;;;;6.45;5.05;;;13.20;99.90;;;;;;5065926;28;20220;-66
2021/11/02 00:29:34;;;;;;;7.10;5.35;;;13.20;99.90;;;;;;5062791;28;20244;-65
2021/11/02 00:32:01;;;;;;;7.80;5.43;;;13.30;99.90;;;;;;5059093;28;20307;-65
2021/11/02 00:34:32;;;;;;;4.82;4.43;;;13.30;99.90;;;;;;5059830;28;20247;-65
2021/11/02 00:37:00;;;;;;;5.40;5.00;;;13.30;99.90;;;;;;5065434;28;20311;-65
2021/11/02 00:39:27;;;;;;;5.22;4.55;;;13.30;99.90;;;;;;5055775;28;20224;-66
2021/11/02 00:41:54;;;;;;;5.10;4.30;;;13.30;99.90;;;;;;5071517;28;20305;-66
2021/11/02 00:44:22;;;;;;;5.30;4.65;;;13.20;99.90;;;;;;5053465;28;20537;-65
2021/11/02 00:46:50;;;;;;;5.82;5.00;;;13.30;99.90;;;;;;5065509;28;20312;-65
2021/11/02 00:49:18;;;;;;;6.00;5.40;;;13.30;99.90;;;;;;5055928;28;20255;-65
2021/11/02 00:51:46;;;;;;;6.13;4.40;;;13.30;99.90;;;;;;5060698;28;20208;-65
2021/11/02 00:54:15;;;;;;;5.87;5.33;;;13.30;99.90;;;;;;5058686;28;21403;-65
2021/11/02 00:56:42;;;;;;;6.30;4.15;;;13.30;99.90;;;;;;5052773;28;20837;-65
2021/11/02 00:59:10;;;;;;;6.15;5.07;;;13.30;99.90;;;;;;5065616;28;20236;-65
2021/11/02 01:01:38;;;;;;;5.55;4.90;;;13.30;99.90;;;;;;5059943;28;20227;-65
2021/11/02 01:04:05;;;;;;;5.10;4.70;;;13.30;99.90;;;;;;5058422;28;20606;-65
2021/11/02 01:06:33;;;;;;;5.70;5.20;;;13.30;99.90;;;;;;5054014;28;20651;-65
2021/11/02 01:09:03;;;;;;;7.57;4.82;;;13.30;99.90;;;;;;5065536;28;20235;-66
2021/11/02 01:11:32;;;;;;;5.45;4.90;;;13.30;99.90;;;;;;5059364;28;20220;-65
2021/11/02 01:13:59;;;;;;;8.85;6.30;;;13.30;99.90;;;;;;5070020;28;20747;-65
2021/11/02 01:16:27;;;;;;;8.23;5.80;;;13.30;99.90;;;;;;5059995;28;20236;-65
2021/11/02 01:18:54;;;;;;;9.15;5.72;;;13.30;99.90;;;;;;5058722;28;20305;-65
2021/11/02 01:21:22;;;;;;;5.55;5.13;;;13.30;99.90;;;;;;5067020;28;20282;-65
2021/11/02 01:23:49;;;;;;;6.77;6.17;;;13.30;99.90;;;;;;5068499;28;20250;-65
2021/11/02 01:26:20;;;;;;;6.40;5.80;;;13.30;99.90;;;;;;5064607;28;20535;-65
2021/11/02 01:28:48;;;;;;;7.20;6.50;;;13.20;99.90;;;;;;5061604;28;20220;-64
2021/11/02 01:31:15;;;;;;;7.70;6.70;;;13.30;99.90;;;;;;5065496;28;20221;-65
2021/11/02 01:33:42;;;;;;;5.95;5.38;;;13.30;99.90;;;;;;5068414;28;20286;-65
2021/11/02 01:36:09;;;;;;;6.40;5.80;;;13.30;99.90;;;;;;5065686;28;20239;-65
2021/11/02 01:38:37;;;;;;;7.03;5.60;;;13.30;99.90;;;;;;5061222;28;20661;-66
2021/11/02 01:41:05;;;;;;;7.32;6.63;;;13.30;99.90;;;;;;5064902;28;20407;-66
2021/11/02 01:43:33;;;;;;;8.03;7.33;;;13.30;99.90;;;;;;5059047;28;20227;-66
2021/11/02 01:46:02;;;;;;;11.80;7.40;;;13.30;99.90;;;;;;5066328;28;20804;-66
2021/11/02 01:48:30;;;;;;;9.20;6.70;;;13.30;99.90;;;;;;5061337;28;20220;-66
2021/11/02 01:50:57;;;;;;;9.52;7.38;;;13.30;99.90;;;;;;5056695;28;20247;-66
2021/11/02 01:53:24;;;;;;;8.82;7.75;;;13.20;99.90;;;;;;5068162;28;20289;-65
2021/11/02 01:55:51;;;;;;;8.40;6.95;;;13.30;99.90;;;;;;5066525;28;20619;-65
2021/11/02 01:58:18;;;;;;;6.97;6.07;;;13.30;99.90;;;;;;5068437;28;20224;-65
2021/11/02 02:00:52;;;;;;;13.07;11.68;;;13.30;99.90;;;;;;5066507;28;20232;-65
2021/11/02 02:03:33;;;;;;;13.63;8.43;;;13.30;99.90;;;;;;5061425;28;20692;-65
2021/11/02 02:06:10;;;;;;;9.45;8.60;;;13.20;99.90;;;;;;5058440;28;20999;-66
2021/11/02 02:08:48;;;;;;;10.32;7.72;;;13.20;99.90;;;;;;5065272;28;20226;-66
2021/11/02 02:11:22;;;;;;;12.63;8.02;;;13.20;99.90;;;;;;5061583;28;20273;-66
2021/11/02 02:13:54;;;;;;;8.55;7.75;;;13.20;99.90;;;;;;5068984;28;20658;-66
2021/11/02 02:16:25;;;;;;;7.15;6.45;;;13.20;99.90;;;;;;5062617;28;20228;-66
2021/11/02 02:18:58;;;;;;;7.22;6.55;;;13.30;99.90;;;;;;5060640;28;20274;-66
2021/11/02 02:21:45;;;;;;;8.30;7.05;;;13.30;99.90;;;;;;5064774;28;20327;-66
2021/11/02 02:24:20;;;;;;;7.60;6.90;;;13.30;99.90;;;;;;5067612;28;20802;-66
2021/11/02 02:26:58;;;;;;;6.87;6.17;;;13.30;99.90;;;;;;5067891;28;21049;-66
2021/11/02 02:29:28;;;;;;;7.72;6.90;;;13.30;99.90;;;;;;5062406;28;20532;-66
2021/11/02 02:31:56;;;;;;;11.90;9.85;;;13.30;99.90;;;;;;5060938;28;20629;-65
2021/11/02 02:34:27;;;;;;;9.82;8.45;;;13.30;99.90;;;;;;5064478;28;20217;-66
2021/11/02 02:36:56;;;;;;;11.10;8.38;;;13.40;99.90;;;;;;5066376;28;20278;-65
2021/11/02 02:39:24;;;;;;;9.30;8.02;;;13.40;99.90;;;;;;5064382;28;20236;-66
2021/11/02 02:41:51;;;;;;;7.35;6.75;;;13.40;99.90;;;;;;5060363;28;20227;-66
2021/11/02 02:44:20;;;;;;;8.20;7.00;;;13.50;99.90;;;;;;5054703;28;20221;-66
2021/11/02 02:46:49;;;;;;;7.97;6.80;;;13.50;99.90;;;;;;5067200;28;20817;-66
2021/11/02 02:49:16;;;;;;;11.43;6.95;;;13.50;99.90;;;;;;5060980;28;20220;-65
2021/11/02 02:51:44;;;;;;;6.80;6.20;;;13.50;99.90;;;;;;5059381;28;20231;-66
2021/11/02 02:54:13;;;;;;;6.75;6.25;;;13.50;99.90;;;;;;5061812;28;20225;-66
2021/11/02 02:56:44;;;;;;;7.00;6.30;;;13.50;99.90;;;;;;5072063;28;20243;-66
2021/11/02 02:59:14;;;;;;;7.63;6.90;;;13.50;99.90;;;;;;5061006;28;20220;-65
2021/11/02 03:01:43;;;;;;;9.02;6.95;;;13.50;99.90;;;;;;5052831;28;20524;-65
2021/11/02 03:04:20;;;;;;;16.25;14.63;;;13.40;99.90;;;;;;5060146;28;20690;-65
2021/11/02 03:06:52;;;;;;;12.48;9.60;;;13.50;99.90;;;;;;5059818;28;20238;-66
2021/11/02 03:09:20;;;;;;;7.88;7.13;;;13.50;99.90;;;;;;5061047;28;20281;-65
2021/11/02 03:11:47;;;;;;;7.70;6.85;;;13.50;99.90;;;;;;5060184;28;20228;-65
2021/11/02 03:14:21;;;;;;;13.15;10.88;;;13.50;99.90;;;;;;5073038;28;20212;-66
2021/11/02 03:16:55;;;;;;;10.15;7.72;;;13.50;99.90;;;;;;5057982;28;20220;-66
2021/11/02 03:19:59;;;;;;;8.63;7.72;;;13.50;99.90;;;;;;5063613;28;20238;-66
2021/11/02 03:45:09;;;;;;;9.70;8.52;;;13.30;99.90;;;;;;5051021;28;20684;-65
2021/11/02 03:48:07;;;;;;;10.02;8.98;;;13.30;99.90;;;;;;5051504;28;20305;-65
2021/11/02 03:50:57;;;;;;;10.05;9.15;;;13.30;99.90;;;;;;5039422;28;20358;-66
2021/11/02 03:56:21;;;;;;;9.85;8.85;;;13.30;99.90;;;;;;5053419;28;20562;-65
2021/11/02 03:59:06;;;;;;;11.20;10.10;;;13.30;99.90;;;;;;5052934;28;20765;-65
2021/11/02 05:46:55;;;;;;;11.73;10.63;;;13.40;99.90;;;;;;5055899;28;20282;-65
2021/11/02 05:49:36;;;;;;;12.13;10.93;;;13.40;99.90;;;;;;5043072;28;20221;-66
2021/11/02 05:57:44;;;;;;;13.05;11.70;;;13.40;99.90;;;;;;5116875;27;20559;-65
2021/11/02 06:00:15;;;;;;;15.52;13.90;;;13.40;99.90;;;;;;5123813;27;20229;-65
2021/11/02 06:03:05;;;;;;;15.23;12.48;;;13.40;99.90;;;;;;5131206;27;20252;-65
2021/11/02 06:05:45;;;;;;;16.67;13.40;;;13.40;99.90;;;;;;5130552;27;20300;-65
2021/11/02 06:28:06;;;;;;;14.43;12.93;;;13.40;99.90;;;;;;5150932;27;20233;-64
2021/11/02 06:30:42;;;;;;;14.85;13.45;;;13.30;99.90;;;;;;5151170;27;20690;-65
2021/11/02 06:33:19;;;;;;;17.33;13.70;;;13.30;99.90;;;;;;5150710;27;20225;-65
2021/11/02 06:35:57;;;;;;;14.15;12.38;;;13.30;99.90;;;;;;5151035;27;20221;-65
2021/11/02 06:47:22;;;;;;;14.02;12.18;;;13.30;99.90;;;;;;5150901;27;20593;-65
2021/11/02 06:52:57;;;;;;;14.75;13.25;;;13.30;99.90;;;;;;5150898;27;20777;-65
2021/11/02 06:55:58;;;;;;;15.45;12.95;;;13.30;99.90;;;;;;5150408;27;20300;-65
2021/11/02 06:58:48;;;;;;;14.52;13.02;;;13.30;99.90;;;;;;5129623;27;20213;-65
2021/11/02 07:15:34;;;;;;;14.02;12.65;;;13.30;99.90;;;;;;5115972;27;20713;-65
2021/11/02 07:18:06;;;;;;;16.55;12.70;;;13.30;99.90;;;;;;5116251;27;20343;-65
2021/11/02 07:20:43;;;;;;;14.55;12.57;;;13.30;99.90;;;;;;5115815;27;21300;-64
2021/11/02 07:23:30;;;;;;;15.48;12.60;;;13.20;99.90;;;;;;5127278;27;20218;-65
2021/11/02 07:26:11;;;;;;;15.38;12.65;;;13.20;99.90;;;;;;5136544;27;20217;-65
2021/11/02 08:46:58;;;;;;;13.40;12.00;;;13.60;99.90;;;;;;5135058;27;20826;-65
2021/11/02 08:49:26;;;;;;;14.15;12.60;;;13.60;99.90;;;;;;5134439;27;21159;-65
2021/11/02 08:51:57;;;;;;;15.77;13.00;;;13.60;99.90;;;;;;5134672;27;20225;-65
2021/11/02 08:54:25;;;;;;;17.13;12.33;;;13.60;99.90;;;;;;5133102;27;20290;-65
2021/11/02 08:56:53;;;;;;;15.32;13.75;;;13.60;99.90;;;;;;5113655;27;20461;-64
2021/11/02 08:59:22;;;;;;;12.88;11.55;;;13.60;99.90;;;;;;5113550;27;20227;-64
2021/11/02 09:01:56;;;;;;;15.88;13.30;;;13.60;99.90;;;;;;5113963;27;20745;-64
2021/11/02 09:04:29;;;;;;;13.63;12.23;;;13.60;99.90;;;;;;5113325;27;20222;-64
2021/11/02 09:06:58;;;;;;;14.83;13.23;;;13.60;99.90;;;;;;5113912;27;20288;-64
2021/11/02 09:09:34;;;;;;;19.10;13.60;;;13.60;99.90;;;;;;5113117;27;20471;-63
2021/11/02 09:12:03;;;;;;;15.93;14.23;;;13.70;99.90;;;;;;5113639;27;20292;-64
2021/11/02 09:14:36;;;;;;;16.05;14.35;;;13.60;99.90;;;;;;5113562;27;21010;-64
2021/11/02 09:17:05;;;;;;;15.90;13.57;;;13.60;99.90;;;;;;5113667;27;20255;-65
2021/11/02 09:19:35;;;;;;;18.73;15.57;;;13.60;99.90;;;;;;5113325;27;21315;-65
2021/11/02 09:22:03;;;;;;;23.42;17.20;;;13.60;99.90;;;;;;5115678;27;20222;-65
2021/11/02 09:24:30;;;;;;;19.95;17.48;;;13.60;99.90;;;;;;5133889;27;20218;-65
2021/11/02 09:26:59;;;;;;;23.17;19.53;;;13.60;99.90;;;;;;5126063;27;20229;-66
2021/11/02 09:29:27;;;;;;;22.33;19.13;;;13.60;99.90;;;;;;5112932;27;20567;-64
2021/11/02 09:31:58;;;;;;;22.65;18.52;;;13.60;99.90;;;;;;5113238;27;20275;-64
2021/11/02 09:34:25;;;;;;;28.73;20.33;;;13.60;99.90;;;;;;5112973;27;20222;-65
2021/11/02 09:36:58;;;;;;;21.65;19.27;;;13.60;99.90;;;;;;5113377;27;20222;-64
2021/11/02 09:39:30;;;;;;;22.80;20.35;;;13.60;99.90;;;;;;5112868;27;20696;-65
2021/11/02 09:42:42;;;;;;;26.77;21.70;;;13.60;99.90;;;;;;5113301;27;20267;-65
2021/11/02 09:45:27;;;;;;;24.65;19.15;;;13.60;99.90;;;;;;5131336;27;20278;-66
2021/11/02 09:48:29;;;;;;;20.70;18.30;;;13.60;99.90;;;;;;5133280;27;20234;-64
2021/11/02 09:51:26;;;;;;;23.80;19.42;;;13.70;99.90;;;;;;5132992;27;20232;-65
2021/11/02 09:54:31;;;;;;;22.27;19.33;;;13.70;99.90;;;;;;5133202;27;20234;-65
2021/11/02 09:57:24;;;;;;;21.37;19.07;;;13.80;99.90;;;;;;5123767;27;20222;-65
2021/11/02 10:00:10;;;;;;;25.02;20.30;;;13.80;99.90;;;;;;5112342;27;20464;-65
2021/11/02 10:03:06;;;;;;;24.60;18.98;;;13.80;99.90;;;;;;5112921;27;20309;-65
2021/11/02 10:05:59;;;;;;;24.30;20.60;;;13.80;99.90;;;;;;5114434;27;20275;-65
2021/11/02 10:08:44;;;;;;;23.05;20.35;;;13.80;99.90;;;;;;5132444;27;20463;-65
2021/11/02 10:11:23;;;;;;;22.35;19.77;;;13.80;99.90;;;;;;5133384;27;20353;-66
2021/11/02 10:14:19;;;;;;;24.30;20.58;;;13.80;99.90;;;;;;5133647;27;20232;-65
2021/11/02 10:17:05;;;;;;;23.00;18.95;;;13.80;99.90;;;;;;5132205;27;20967;-64
2021/11/02 10:20:07;;;;;;;20.10;16.75;;;13.80;99.90;;;;;;5132982;27;20241;-65
2021/11/02 10:23:06;;;;;;;23.25;19.80;;;13.80;99.90;;;;;;5099475;27;20651;-64
2021/11/02 10:26:05;;;;;;;19.23;16.97;;;13.80;99.90;;;;;;5133066;27;20683;-65
2021/11/02 10:29:12;;;;;;;18.60;16.03;;;13.90;99.90;;;;;;5112240;27;20465;-65
2021/11/02 10:31:48;;;;;;;18.58;15.32;;;13.90;99.90;;;;;;5112365;27;20464;-65
2021/11/02 10:34:32;;;;;;;19.02;15.80;;;14.00;99.90;;;;;;5112619;27;20253;-65
2021/11/02 10:37:17;;;;;;;14.80;13.30;;;14.00;99.90;;;;;;5112788;27;20229;-65
2021/11/02 10:40:06;;;;;;;14.90;12.70;;;14.10;99.90;;;;;;5112329;27;20456;-65
2021/11/02 10:42:50;;;;;;;16.30;13.53;;;14.20;99.90;;;;;;5118181;27;20487;-65
2021/11/02 10:45:18;;;;;;;16.27;14.47;;;14.20;99.90;;;;;;5136483;27;20534;-65
2021/11/02 10:47:58;;;;;;;16.47;14.87;;;14.20;99.90;;;;;;5137033;27;20467;-65
2021/11/02 10:50:29;;;;;;;19.33;16.20;;;14.30;99.90;;;;;;5136623;27;21222;-65
2021/11/02 10:53:02;;;;;;;18.03;15.70;;;14.30;99.90;;;;;;5136552;27;20851;-65
2021/11/02 10:55:40;;;;;;;16.93;15.13;;;14.20;99.90;;;;;;5136404;27;20467;-65
2021/11/02 10:58:31;;;;;;;18.07;15.40;;;14.30;99.90;;;;;;5117485;27;20471;-65
2021/11/02 11:01:01;;;;;;;19.30;17.07;;;14.40;99.90;;;;;;5116051;27;20544;-65
2021/11/02 11:03:30;;;;;;;30.47;27.17;;;14.40;99.90;;;;;;5115991;27;20468;-65
2021/11/02 11:05:59;;;;;;;17.80;16.10;;;14.40;99.90;;;;;;5116216;27;20456;-65
2021/11/02 11:08:31;;;;;;;16.30;14.57;;;14.40;99.90;;;;;;5115521;27;20535;-66
2021/11/02 11:11:01;;;;;;;18.13;15.70;;;14.50;99.90;;;;;;5116150;27;20479;-65
2021/11/02 11:13:30;;;;;;;14.13;12.67;;;14.50;99.90;;;;;;5115733;27;20463;-65
2021/11/02 11:16:06;;;;;;;16.90;12.57;;;14.50;99.90;;;;;;5116043;27;20821;-65
2021/11/02 11:18:45;;;;;;;14.57;12.17;;;14.60;99.90;;;;;;5115595;27;20459;-65
2021/11/02 11:21:12;;;;;;;13.17;11.87;;;14.60;99.90;;;;;;5115653;27;20846;-65
2021/11/02 11:23:43;;;;;;;13.03;11.73;;;14.70;99.90;;;;;;5131772;27;20478;-65
2021/11/02 11:26:11;;;;;;;13.70;12.30;;;14.70;99.90;;;;;;5135968;27;20468;-66
2021/11/02 11:28:40;;;;;;;15.77;13.27;;;14.70;99.90;;;;;;5136331;27;20466;-65
2021/11/02 11:31:08;;;;;;;13.47;12.17;;;14.70;99.90;;;;;;5136188;27;20463;-65
2021/11/02 11:33:35;;;;;;;12.30;11.10;;;14.70;99.90;;;;;;5135872;27;20459;-65
2021/11/02 11:36:05;;;;;;;16.40;13.60;;;14.80;99.90;;;;;;5136124;27;20463;-66
2021/11/02 11:38:37;;;;;;;10.93;9.93;;;14.80;99.90;;;;;;5135485;27;20452;-65
2021/11/02 11:41:07;;;;;;;13.30;11.10;;;14.90;99.90;;;;;;5136064;27;20490;-65
2021/11/02 11:43:36;;;;;;;14.23;12.33;;;14.90;99.90;;;;;;5135371;27;20485;-66
2021/11/02 11:46:04;;;;;;;12.50;11.20;;;15.00;99.90;;;;;;5135992;27;20463;-66
2021/11/02 11:48:32;;;;;;;11.87;10.70;;;15.00;99.90;;;;;;5135554;27;20466;-64
2021/11/02 11:51:02;;;;;;;12.00;10.90;;;15.00;99.90;;;;;;5135583;27;20981;-64
2021/11/02 11:53:30;;;;;;;11.17;10.20;;;15.00;99.90;;;;;;5135107;27;20456;-64
2021/11/02 11:56:07;;;;;;;10.73;9.80;;;15.00;99.90;;;;;;5134942;27;20486;-64
2021/11/02 11:58:35;;;;;;;12.97;10.67;;;15.00;99.90;;;;;;5114750;27;20532;-67
2021/11/02 12:01:09;;;;;;;12.83;11.40;;;15.00;99.90;;;;;;5115085;27;20479;-64
2021/11/02 12:03:49;;;;;;;12.23;10.97;;;15.00;99.90;;;;;;5119817;27;20452;-65
2021/11/02 12:06:21;;;;;;;12.87;11.57;;;15.00;99.90;;;;;;5135162;27;20527;-65
2021/11/02 12:08:54;;;;;;;12.03;10.87;;;15.00;99.90;;;;;;5135316;27;20547;-64
2021/11/02 12:11:23;;;;;;;13.93;12.30;;;15.00;99.90;;;;;;5135036;27;20463;-65
2021/11/02 12:13:56;;;;;;;13.03;11.93;;;15.00;99.90;;;;;;5135676;27;20494;-65
2021/11/02 12:16:34;;;;;;;12.70;11.40;;;15.00;99.90;;;;;;5134893;27;20473;-64
2021/11/02 12:19:07;;;;;;;12.60;11.30;;;15.00;99.90;;;;;;5135306;27;20806;-65
2021/11/02 12:21:37;;;;;;;13.80;12.50;;;15.10;99.90;;;;;;5134828;27;20455;-65
2021/11/02 12:24:06;;;;;;;13.77;12.47;;;15.10;99.90;;;;;;5135149;27;20471;-65
2021/11/02 12:26:54;;;;;;;12.53;11.43;;;15.10;99.90;;;;;;5134664;27;20957;-65
2021/11/02 12:29:25;;;;;;;12.27;11.27;;;15.10;99.90;;;;;;5109145;27;20464;-65
2021/11/02 12:31:57;;;;;;;12.63;11.43;;;15.10;99.90;;;;;;5114562;27;20818;-66
2021/11/02 12:34:26;;;;;;;13.27;11.90;;;15.10;99.90;;;;;;5114049;27;20460;-65
2021/11/02 12:36:58;;;;;;;12.97;11.70;;;15.10;99.90;;;;;;5114423;27;20569;-65
2021/11/02 12:39:28;;;;;;;12.60;11.40;;;15.20;99.90;;;;;;5113709;27;20480;-65
2021/11/02 12:41:57;;;;;;;12.37;11.37;;;15.20;99.90;;;;;;5114278;27;20958;-66
2021/11/02 12:44:29;;;;;;;15.10;13.73;;;15.20;99.90;;;;;;5125729;27;20497;-65
2021/11/02 12:46:58;;;;;;;16.03;14.57;;;15.20;99.90;;;;;;5134865;27;20533;-66
2021/11/02 12:49:38;;;;;;;26.00;23.63;;;15.20;99.90;;;;;;5133961;27;20525;-65
2021/11/02 12:52:07;;;;;;;35.50;32.50;;;15.20;99.90;;;;;;5114129;27;20980;-68
2021/11/02 12:54:35;;;;;;;31.47;28.57;;;15.20;99.90;;;;;;5125027;27;20527;-67
2021/11/02 12:57:05;;;;;;;21.67;19.73;;;15.20;99.90;;;;;;5124368;27;20552;-67
2021/11/02 12:59:41;;;;;;;18.40;16.80;;;15.20;99.90;;;;;;5113536;27;21021;-67
2021/11/02 13:02:19;;;;;;;17.23;15.67;;;15.20;99.90;;;;;;5113787;27;20456;-67
2021/11/02 13:04:49;;;;;;;14.67;13.27;;;15.20;99.90;;;;;;5113609;27;20462;-67
2021/11/02 13:07:17;;;;;;;16.53;13.80;;;15.20;99.90;;;;;;5113625;27;20452;-67
2021/11/02 13:09:55;;;;;;;13.60;12.00;;;15.20;99.90;;;;;;5113105;27;20965;-67
2021/11/02 13:12:27;;;;;;;15.33;13.97;;;15.20;99.90;;;;;;5113441;27;20471;-68
2021/11/02 13:15:03;;;;;;;14.10;12.70;;;15.20;99.90;;;;;;5113825;27;20463;-68
2021/11/02 13:17:42;;;;;;;13.93;12.63;;;15.20;99.90;;;;;;5112961;27;20476;-68
2021/11/02 13:20:10;;;;;;;15.47;13.03;;;15.20;99.90;;;;;;5113341;27;20534;-68
2021/11/02 13:22:38;;;;;;;12.67;11.57;;;15.20;99.90;;;;;;5120064;27;20464;-68
2021/11/02 13:25:07;;;;;;;11.87;10.87;;;15.20;99.90;;;;;;5134157;27;20474;-68
2021/11/02 13:27:39;;;;;;;12.00;11.00;;;15.20;99.90;;;;;;5127783;27;20460;-68
2021/11/02 13:30:30;;;;;;;14.43;13.23;;;15.20;99.90;;;;;;5113317;27;20470;-68
2021/11/02 13:33:03;;;;;;;13.30;12.20;;;15.30;99.90;;;;;;5113259;27;20463;-68
2021/11/02 13:35:44;;;;;;;14.40;13.10;;;15.20;99.90;;;;;;5119069;27;20464;-69
2021/11/02 13:38:26;;;;;;;13.47;12.27;;;15.20;99.90;;;;;;5134151;27;20451;-66
2021/11/02 13:40:54;;;;;;;13.03;11.73;;;15.20;99.90;;;;;;5124824;27;20461;-68
2021/11/02 13:43:35;;;;;;;14.87;13.43;;;15.20;99.90;;;;;;5124629;27;20458;-67
2021/11/02 13:46:06;;;;;;;13.27;12.17;;;15.20;99.90;;;;;;5133129;27;20463;-67
2021/11/02 13:48:34;;;;;;;13.77;12.47;;;15.20;99.90;;;;;;5133796;27;20464;-66
2021/11/02 13:51:01;;;;;;;14.10;12.90;;;15.20;99.90;;;;;;5133346;27;20460;-66
2021/11/02 13:53:33;;;;;;;13.07;11.97;;;15.20;99.90;;;;;;5125475;27;20460;-67
2021/11/02 13:56:00;;;;;;;13.20;12.03;;;15.20;99.90;;;;;;5120619;27;20469;-68
2021/11/02 13:58:27;;;;;;;16.07;14.60;;;15.20;99.90;;;;;;5113264;27;20848;-67
2021/11/02 14:00:54;;;;;;;13.90;12.20;;;15.20;99.90;;;;;;5112951;27;20989;-67
2021/11/02 14:03:29;;;;;;;11.40;10.40;;;15.20;99.90;;;;;;5118735;27;20464;-67
2021/11/02 14:05:58;;;;;;;10.10;9.30;;;15.30;99.90;;;;;;5113146;27;20494;-67
2021/11/02 14:08:28;;;;;;;11.30;10.30;;;15.30;99.90;;;;;;5112595;27;20846;-67
2021/11/02 14:10:55;;;;;;;11.23;10.20;;;15.30;99.90;;;;;;5112907;27;20544;-67
2021/11/02 14:13:45;;;;;;;10.20;9.40;;;15.30;99.90;;;;;;5112777;27;20471;-67
2021/11/02 14:16:17;;;;;;;11.50;10.47;;;15.30;99.90;;;;;;5112635;27;20469;-69
2021/11/02 14:18:45;;;;;;;13.03;11.93;;;15.30;99.90;;;;;;5115755;27;20471;-67
2021/11/02 14:21:12;;;;;;;13.80;12.40;;;15.30;99.90;;;;;;5116635;27;20471;-67
2021/11/02 14:23:42;;;;;;;13.33;11.40;;;15.40;99.90;;;;;;5132919;27;20470;-67
2021/11/02 14:26:23;;;;;;;13.13;11.73;;;15.40;99.90;;;;;;5137166;27;20460;-67
2021/11/02 14:28:52;;;;;;;12.80;9.63;;;15.40;99.90;;;;;;5120963;27;20463;-68
2021/11/02 14:31:45;;;;;;;10.77;9.70;;;15.40;99.90;;;;;;5116399;27;20464;-68
2021/11/02 14:34:45;;;;;;;10.43;8.87;;;15.40;99.90;;;;;;5116225;27;20809;-68
2021/11/02 14:37:15;;;;;;;8.13;7.33;;;15.50;99.90;;;;;;5125491;27;20471;-68
2021/11/02 14:40:04;;;;;;;7.60;7.00;;;15.40;99.90;;;;;;5136895;27;20977;-67
2021/11/02 14:42:50;;;;;;;11.70;6.77;;;15.40;99.90;;;;;;5136768;27;20486;-67
2021/11/02 14:45:17;;;;;;;7.57;6.83;;;15.40;99.90;;;;;;5136586;27;20463;-67
2021/11/02 14:47:45;;;;;;;7.83;7.03;;;15.40;99.90;;;;;;5137272;27;20451;-67
2021/11/02 14:50:33;;;;;;;7.93;7.23;;;15.40;99.90;;;;;;5136467;27;20455;-68
2021/11/02 14:53:12;;;;;;;9.67;8.70;;;15.40;99.90;;;;;;5137183;27;21128;-68
2021/11/02 14:55:55;;;;;;;7.60;6.90;;;15.50;99.90;;;;;;5136553;27;20492;-68
2021/11/02 14:58:46;;;;;;;6.33;5.53;;;15.40;99.90;;;;;;5115771;27;20468;-68
2021/11/02 15:01:15;;;;;;;6.40;5.40;;;15.40;99.90;;;;;;5116328;27;20483;-68
2021/11/02 15:03:44;;;;;;;9.03;5.40;;;15.40;99.90;;;;;;5115911;27;21009;-68
2021/11/02 15:06:14;;;;;;;5.77;5.23;;;15.40;99.90;;;;;;5116064;27;20468;-68
2021/11/02 15:08:42;;;;;;;5.63;5.13;;;15.40;99.90;;;;;;5115730;27;20786;-68
2021/11/02 15:11:11;;;;;;;5.90;5.23;;;15.40;99.90;;;;;;5116167;27;20460;-68
2021/11/02 15:13:39;;;;;;;6.50;5.90;;;15.30;99.90;;;;;;5115773;27;20468;-68
2021/11/02 15:16:06;;;;;;;8.93;5.10;;;15.30;99.90;;;;;;5116044;27;20829;-68
2021/11/02 15:18:39;;;;;;;8.00;6.50;;;15.30;99.90;;;;;;5115465;27;20507;-67
2021/11/02 15:21:06;;;;;;;9.07;8.17;;;15.30;99.90;;;;;;5116044;27;20491;-67
2021/11/02 15:23:43;;;;;;;7.47;6.87;;;15.30;99.90;;;;;;5130689;27;20466;-68
2021/11/02 15:26:11;;;;;;;6.37;5.87;;;15.20;99.90;;;;;;5136395;27;20459;-67
2021/11/02 15:28:42;;;;;;;7.87;7.10;;;15.20;99.90;;;;;;5135197;27;20467;-67
2021/11/02 15:31:09;;;;;;;8.13;5.97;;;15.30;99.90;;;;;;5136538;27;20474;-67
2021/11/02 15:33:39;;;;;;;6.83;5.93;;;15.20;99.90;;;;;;5135843;27;20475;-67
2021/11/02 15:36:12;;;;;;;8.50;6.40;;;15.20;99.90;;;;;;5135991;27;20471;-67
2021/11/02 15:38:40;;;;;;;16.20;11.90;;;15.20;99.90;;;;;;5135425;27;20472;-67
2021/11/02 15:41:20;;;;;;;9.50;8.60;;;15.20;99.90;;;;;;5136212;27;20490;-67
2021/11/02 15:43:55;;;;;;;8.93;7.50;;;15.20;99.90;;;;;;5135619;27;20846;-67
2021/11/02 15:46:31;;;;;;;7.23;6.53;;;15.10;99.90;;;;;;5135864;27;20477;-67
2021/11/02 15:48:58;;;;;;;9.73;5.90;;;15.10;99.90;;;;;;5136326;27;20585;-67
2021/11/02 15:51:30;;;;;;;5.60;5.20;;;15.10;99.90;;;;;;5135182;27;20471;-67
2021/11/02 15:53:59;;;;;;;5.73;4.60;;;15.10;99.90;;;;;;5135540;27;20525;-67
2021/11/02 15:56:27;;;;;;;5.93;5.37;;;15.10;99.90;;;;;;5130530;27;20826;-68
2021/11/02 15:59:00;;;;;;;6.50;5.07;;;15.00;99.90;;;;;;5115135;27;20459;-68
2021/11/02 16:01:32;;;;;;;6.43;5.60;;;15.10;99.90;;;;;;5114326;27;21019;-68
2021/11/02 16:04:20;;;;;;;6.70;5.30;;;15.00;99.90;;;;;;5114607;27;20520;-68
2021/11/02 16:07:05;;;;;;;6.10;5.20;;;15.00;99.90;;;;;;5135104;27;20463;-68
2021/11/02 16:09:49;;;;;;;7.73;5.87;;;15.00;99.90;;;;;;5135267;27;20471;-69
2021/11/02 16:12:27;;;;;;;5.87;5.37;;;14.90;99.90;;;;;;5120421;27;21478;-66
2021/11/02 16:14:59;;;;;;;8.67;5.80;;;14.90;99.90;;;;;;5114431;27;20464;-65
2021/11/02 16:17:29;;;;;;;5.30;4.80;;;14.90;99.90;;;;;;5114776;27;20466;-65
2021/11/02 16:19:58;;;;;;;7.73;6.10;;;14.90;99.90;;;;;;5114248;27;20788;-63
2021/11/02 16:22:26;;;;;;;5.90;5.37;;;14.90;99.90;;;;;;5120139;27;20472;-68
2021/11/02 16:25:07;;;;;;;14.20;11.47;;;14.80;99.90;;;;;;5134833;27;20467;-64
2021/11/02 16:27:34;;;;;;;10.43;7.53;;;14.80;99.90;;;;;;5135347;27;20479;-68
2021/11/02 16:30:14;;;;;;;14.00;8.27;;;14.80;99.90;;;;;;5134514;27;20464;-64
2021/11/02 16:32:42;;;;;;;20.67;14.70;;;14.80;99.90;;;;;;5134857;27;20463;-65
2021/11/02 16:35:09;;;;;;;18.00;10.40;;;14.80;99.90;;;;;;5134745;27;20460;-65
2021/11/02 16:37:38;;;;;;;13.83;10.07;;;14.80;99.90;;;;;;5119497;27;20460;-69
2021/11/02 16:40:25;;;;;;;9.00;8.10;;;14.80;99.90;;;;;;5112931;27;20477;-66
2021/11/02 16:42:57;;;;;;;12.50;7.97;;;14.80;99.90;;;;;;5121674;27;20460;-67
2021/11/02 16:45:25;;;;;;;21.50;17.40;;;14.80;99.90;;;;;;5134488;27;21232;-66
2021/11/02 16:47:56;;;;;;;28.53;20.83;;;14.80;99.90;;;;;;5134992;27;21115;-66
2021/11/02 16:50:28;;;;;;;14.20;11.97;;;14.80;99.90;;;;;;5134123;27;20956;-64
2021/11/02 16:53:08;;;;;;;15.20;12.07;;;14.80;99.90;;;;;;5134704;27;20510;-68
2021/11/02 16:55:38;;;;;;;15.70;13.50;;;14.90;99.90;;;;;;5133693;27;20463;-65
2021/11/02 16:58:31;;;;;;;17.43;13.47;;;14.80;99.90;;;;;;5115257;27;20471;-69
2021/11/02 17:01:27;;;;;;;14.33;11.90;;;14.80;99.90;;;;;;5113295;27;20473;-70
2021/11/02 17:03:57;;;;;;;11.07;10.00;;;14.80;99.90;;;;;;5077751;27;20479;-67
2021/11/02 17:06:32;;;;;;;12.05;10.65;;;14.80;99.90;;;;;;5113952;27;20461;-70
2021/11/02 17:09:24;;;;;;;9.57;8.67;;;14.70;99.90;;;;;;5128312;27;20652;-64
2021/11/02 17:11:58;;;;;;;8.93;8.03;;;14.70;99.90;;;;;;5134064;27;20508;-67
2021/11/02 17:14:27;;;;;;;9.97;8.97;;;14.70;99.90;;;;;;5134232;27;20455;-64
2021/11/02 17:16:57;;;;;;;11.77;9.93;;;14.60;99.90;;;;;;5133774;27;20460;-68
2021/11/02 17:19:24;;;;;;;19.60;16.13;;;14.60;99.90;;;;;;5133378;27;20464;-64
2021/11/02 17:21:54;;;;;;;14.20;12.80;;;14.60;99.90;;;;;;5116310;27;20467;-62
2021/11/02 17:24:21;;;;;;;13.03;10.50;;;14.60;99.90;;;;;;5133831;27;20455;-63
2021/11/02 17:26:48;;;;;;;12.83;11.63;;;14.60;99.90;;;;;;5133775;27;20879;-64
2021/11/02 17:29:17;;;;;;;11.93;10.60;;;14.50;99.90;;;;;;5117568;27;20468;-69
2021/11/02 17:31:45;;;;;;;13.20;11.70;;;14.50;99.90;;;;;;5113042;27;20471;-62